If you wish to contribute or participate in the discussions about articles you are invited to join SKYbrary as a registered user

 Actions

Sandefjord Airport Torp

From SKYbrary Wiki

ENTO /
Revision as of 18:06, 5 July 2010 by Timo.Kouwenhoven (talk | contribs) (Created page with '{{Airport |Airport_Name=Sandefjord Airport Torp |ICAO_Region=EUR |ICAO_Territory=EN |Location=Stokke, Norway |Coordinates=59.186667° N, 10.258611° E }} Sandefjord Airport, Torp…')
(diff) ← Older revision | Latest revision (diff) | Newer revision → (diff)
Airport
ICAO: ENTO
Summary
Name Sandefjord Airport Torp
Region Europe
Territory Norway NO.gif
Location Stokke, Norway
Serving
Coordinates 59° 11' 12.00" N, 10° 15' 31.00" E
Runways
Designator Length Width Surface ROPS
18/36 2949 m9,675.197 ft <br /> 45 m147.638 ft <br /> ASP yes/yes


METAR
Observation ENTO 181620Z 36002KT CAVOK 05/M01 Q1022 NOSIG
Station Torp
Date/Time 18 October 2021 16:20:00
Wind direction 360°
Wind speed 02 kts
Lowest cloud amount clouds and visibility OK
Temperature 5°C
Dew point
Humidity 65%
QNH 1022 hPa
Weather condition n/a

Sandefjord Airport, Torp (IATA: TRF, ICAO: ENTO) is an international airport located 4 nautical miles (7.4 km) northeast of Sandefjord, Norway.